Time,TemperatureF,DewpointF,PressureIn,WindDirection,WindDirectionDegrees,WindSpeedMPH,WindSpeedGustMPH,Humidity,HourlyPrecipIn,Conditions,Clouds,dailyrainin,SoftwareType,DateUTC
2013-06-08 00:02:00,59.5,53.0,29.91,ENE,61,0.0,0.0,79,0.00,RA,,0.00,WeatherDisplay:10.37,2013-06-08 05:02:00,
2013-06-08 00:07:00,59.5,52.6,29.91,ENE,61,0.0,0.0,78,0.00,RA,,0.00,WeatherDisplay:10.37,2013-06-08 05:07:00,
2013-06-08 00:12:00,59.3,52.8,29.91,ENE,61,0.0,0.0,79,0.00,,,0.00,WeatherDisplay:10.37,2013-06-08 05:12:00,
2013-06-08 00:17:00,59.3,52.8,29.91,ENE,61,0.0,0.0,79,0.00,,,0.00,WeatherDisplay:10.37,2013-06-08 05:17:00,
2013-06-08 00:22:00,59.2,53.0,29.91,ENE,60,0.0,0.0,80,0.00,,,0.00,WeatherDisplay:10.37,2013-06-08 05:22:00,
2013-06-08 00:27:00,59.0,52.8,29.91,ENE,61,0.0,0.0,80,0.00,,,0.00,WeatherDisplay:10.37,2013-06-08 05:27:00,
2013-06-08 00:32:00,58.8,52.6,29.91,ENE,61,0.0,0.0,80,0.00,,,0.00,WeatherDisplay:10.37,2013-06-08 05:32:00,
2013-06-08 00:37:00,58.6,52.4,29.90,ENE,61,0.0,0.0,80,0.00,,,0.00,WeatherDisplay:10.37,2013-06-08 05:37:00,
2013-06-08 00:42:00,59.1,52.6,29.90,ENE,61,0.0,0.0,79,0.00,,,0.00,WeatherDisplay:10.37,2013-06-08 05:42:00,
2013-06-08 00:47:00,59.4,52.5,29.90,ENE,60,0.0,1.1,78,0.00,,,0.00,WeatherDisplay:10.37,2013-06-08 05:47:00,
2013-06-08 00:52:00,59.8,52.9,29.90,ENE,61,0.0,0.0,78,0.00,,,0.00,WeatherDisplay:10.37,2013-06-08 05:52:00,
2013-06-08 00:57:00,60.1,52.9,29.90,ENE,61,0.0,0.0,77,0.00,,,0.00,WeatherDisplay:10.37,2013-06-08 05:57:00,
2013-06-08 01:02:00,59.9,52.7,29.90,ENE,61,0.0,0.0,77,0.00,,,0.00,WeatherDisplay:10.37,2013-06-08 06:02:00,
2013-06-08 01:07:00,59.5,52.6,29.90,ENE,61,0.0,0.0,78,0.00,,,0.00,WeatherDisplay:10.37,2013-06-08 06:07:00,
2013-06-08 01:12:00,59.2,52.7,29.89,ENE,61,0.0,0.0,79,0.00,,,0.00,WeatherDisplay:10.37,2013-06-08 06:12:00,
2013-06-08 01:17:00,59.4,52.9,29.89,ENE,61,0.0,0.0,79,0.00,,,0.00,WeatherDisplay:10.37,2013-06-08 06:17:00,
2013-06-08 01:22:00,59.5,53.0,29.89,ENE,59,0.3,1.0,79,0.00,,,0.00,WeatherDisplay:10.37,2013-06-08 06:22:00,
2013-06-08 01:27:00,59.6,53.1,29.89,NE,44,0.5,1.1,79,0.00,,,0.00,WeatherDisplay:10.37,2013-06-08 06:27:00,
2013-06-08 01:32:00,59.7,53.2,29.89,NE,50,0.4,1.1,79,0.00,,,0.00,WeatherDisplay:10.37,2013-06-08 06:32:00,
2013-06-08 01:37:00,59.5,53.0,29.89,NE,47,0.2,1.1,79,0.00,,,0.00,WeatherDisplay:10.37,2013-06-08 06:37:00,
2013-06-08 01:43:00,59.4,52.9,29.89,NE,46,0.0,0.0,79,0.00,,,0.00,WeatherDisplay:10.37,2013-06-08 06:43:00,
2013-06-08 01:48:00,58.6,52.8,29.89,NE,47,0.0,0.0,81,0.00,,,0.00,WeatherDisplay:10.37,2013-06-08 06:48:00,
2013-06-08 01:53:00,56.6,52.1,29.90,SW,233,1.6,3.5,85,0.00,,,0.00,WeatherDisplay:10.37,2013-06-08 06:53:00,
2013-06-08 01:58:00,55.5,52.0,29.90,SW,232,0.0,1.1,88,0.00,,,0.00,WeatherDisplay:10.37,2013-06-08 06:58:00,
2013-06-08 02:03:00,55.0,51.8,29.90,SW,232,0.0,0.0,89,0.00,,,0.00,WeatherDisplay:10.37,2013-06-08 07:03:00,
2013-06-08 02:08:00,54.5,51.6,29.90,SW,232,0.0,0.0,90,0.00,,,0.00,WeatherDisplay:10.37,2013-06-08 07:08:00,
2013-06-08 02:13:00,54.3,51.7,29.90,SW,232,0.0,0.0,91,0.00,,,0.00,WeatherDisplay:10.37,2013-06-08 07:13:00,
2013-06-08 02:18:00,54.2,51.9,29.90,SW,232,0.0,0.0,92,0.00,,,0.00,WeatherDisplay:10.37,2013-06-08 07:18:00,
2013-06-08 02:23:00,54.0,51.7,29.90,SW,232,0.0,0.0,92,0.00,,,0.00,WeatherDisplay:10.37,2013-06-08 07:23:00,
2013-06-08 02:28:00,53.9,51.9,29.90,SW,232,0.0,0.0,93,0.00,,,0.00,WeatherDisplay:10.37,2013-06-08 07:28:00,
2013-06-08 02:33:00,53.7,51.4,29.89,SW,232,0.0,0.0,92,0.00,,,0.00,WeatherDisplay:10.37,2013-06-08 07:33:00,
2013-06-08 02:38:00,53.7,51.7,29.89,SW,232,0.0,0.0,93,0.00,,,0.00,WeatherDisplay:10.37,2013-06-08 07:38:00,
2013-06-08 02:43:00,53.8,51.8,29.89,SW,232,0.0,0.0,93,0.00,,,0.00,WeatherDisplay:10.37,2013-06-08 07:43:00,
2013-06-08 02:48:00,54.2,52.5,29.89,SW,232,0.0,0.0,94,0.00,,,0.00,WeatherDisplay:10.37,2013-06-08 07:48:00,
2013-06-08 02:53:00,54.4,52.7,29.89,SW,232,0.0,0.0,94,0.00,,,0.00,WeatherDisplay:10.37,2013-06-08 07:53:00,
2013-06-08 02:58:00,54.3,52.3,29.89,SW,232,0.0,0.0,93,0.00,,,0.00,WeatherDisplay:10.37,2013-06-08 07:58:00,
2013-06-08 03:03:00,54.1,52.1,29.89,SW,232,0.0,0.0,93,0.00,,,0.00,WeatherDisplay:10.37,2013-06-08 08:03:00,
2013-06-08 03:08:00,54.3,52.3,29.89,SW,232,0.0,0.0,93,0.00,,,0.00,WeatherDisplay:10.37,2013-06-08 08:08:00,
2013-06-08 03:13:00,54.9,52.6,29.88,SW,232,0.0,0.0,92,0.00,,,0.00,WeatherDisplay:10.37,2013-06-08 08:13:00,
2013-06-08 03:18:00,55.5,52.6,29.88,SW,232,0.0,0.0,90,0.00,,,0.00,WeatherDisplay:10.37,2013-06-08 08:18:00,
2013-06-08 03:23:00,55.9,52.4,29.88,SW,232,0.0,0.0,88,0.00,,,0.00,WeatherDisplay:10.37,2013-06-08 08:23:00,
2013-06-08 03:28:00,55.9,52.4,29.89,SW,232,0.0,0.0,88,0.00,,,0.00,WeatherDisplay:10.37,2013-06-08 08:28:00,
2013-06-08 03:33:00,55.7,52.2,29.89,SW,232,0.0,0.0,88,0.00,,,0.00,WeatherDisplay:10.37,2013-06-08 08:33:00,
2013-06-08 03:38:00,55.4,52.2,29.89,SW,232,0.0,0.0,89,0.00,,,0.00,WeatherDisplay:10.37,2013-06-08 08:38:00,
2013-06-08 03:43:00,54.7,51.5,29.89,SW,232,0.0,0.0,89,0.00,,,0.00,WeatherDisplay:10.37,2013-06-08 08:43:00,
2013-06-08 03:48:00,54.2,51.3,29.89,SW,232,0.0,0.0,90,0.00,,,0.00,WeatherDisplay:10.37,2013-06-08 08:48:00,
2013-06-08 03:53:00,53.7,51.1,29.89,SW,232,0.0,0.0,91,0.00,,,0.00,WeatherDisplay:10.37,2013-06-08 08:53:00,
2013-06-08 03:58:00,53.5,51.2,29.89,SW,232,0.0,0.0,92,0.00,,,0.00,WeatherDisplay:10.37,2013-06-08 08:58:00,
2013-06-08 04:03:00,53.3,51.3,29.89,SW,232,0.0,0.0,93,0.00,,,0.00,WeatherDisplay:10.37,2013-06-08 09:03:00,
2013-06-08 04:08:00,53.2,51.2,29.89,SW,232,0.0,0.0,93,0.00,,,0.00,WeatherDisplay:10.37,2013-06-08 09:08:00,
2013-06-08 04:13:00,53.2,51.2,29.89,SW,232,0.0,0.0,93,0.00,,,0.00,WeatherDisplay:10.37,2013-06-08 09:13:00,
2013-06-08 04:18:00,53.1,51.1,29.89,SW,232,0.0,0.0,93,0.00,,,0.00,WeatherDisplay:10.37,2013-06-08 09:18:00,
2013-06-08 04:23:00,53.1,51.4,29.89,SW,232,0.0,0.0,94,0.00,,,0.00,WeatherDisplay:10.37,2013-06-08 09:23:00,
2013-06-08 04:28:00,53.0,51.3,29.90,SW,232,0.0,0.0,94,0.00,,,0.00,WeatherDisplay:10.37,2013-06-08 09:28:00,
2013-06-08 04:33:00,52.9,51.2,29.90,SW,232,0.0,0.0,94,0.00,,,0.00,WeatherDisplay:10.37,2013-06-08 09:33:00,
2013-06-08 04:38:00,52.8,51.1,29.90,SW,232,0.0,0.0,94,0.00,,,0.00,WeatherDisplay:10.37,2013-06-08 09:38:00,
2013-06-08 04:43:00,52.6,50.9,29.90,SW,232,0.0,0.0,94,0.00,,,0.00,WeatherDisplay:10.37,2013-06-08 09:43:00,
2013-06-08 04:48:00,52.8,51.4,29.90,SW,232,0.0,0.0,95,0.00,,,0.00,WeatherDisplay:10.37,2013-06-08 09:48:00,
2013-06-08 04:53:00,53.0,51.6,29.90,SW,232,0.0,0.0,95,0.00,,,0.00,WeatherDisplay:10.37,2013-06-08 09:53:00,
2013-06-08 04:58:00,53.2,51.8,29.90,SW,232,0.0,0.0,95,0.00,,,0.00,WeatherDisplay:10.37,2013-06-08 09:58:00,
2013-06-08 05:03:00,53.3,51.9,29.90,SW,232,0.0,0.0,95,0.00,,,0.00,WeatherDisplay:10.37,2013-06-08 10:03:00,
2013-06-08 05:08:00,53.4,52.0,29.90,SW,232,0.0,0.0,95,0.00,,,0.00,WeatherDisplay:10.37,2013-06-08 10:08:00,
2013-06-08 05:13:00,53.5,52.1,29.90,SW,232,0.0,0.0,95,0.00,,,0.00,WeatherDisplay:10.37,2013-06-08 10:13:00,
2013-06-08 05:18:00,53.3,51.6,29.90,SW,232,0.0,0.0,94,0.00,,,0.00,WeatherDisplay:10.37,2013-06-08 10:18:00,
2013-06-08 05:23:00,53.1,51.4,29.91,SW,232,0.0,0.0,94,0.00,CLR,,0.00,WeatherDisplay:10.37,2013-06-08 10:23:00,
2013-06-08 05:28:00,52.8,51.1,29.91,SW,232,0.0,0.0,94,0.00,CLR,,0.00,WeatherDisplay:10.37,2013-06-08 10:28:00,
2013-06-08 05:33:00,52.5,50.8,29.91,SW,232,0.0,0.0,94,0.00,CLR,,0.00,WeatherDisplay:10.37,2013-06-08 10:33:00,
2013-06-08 05:38:00,52.4,51.0,29.91,SW,232,0.0,0.0,95,0.00,CLR,,0.00,WeatherDisplay:10.37,2013-06-08 10:38:00,
2013-06-08 05:43:00,52.1,50.4,29.91,SW,232,0.0,0.0,94,0.00,CLR,,0.00,WeatherDisplay:10.37,2013-06-08 10:43:00,
2013-06-08 05:48:00,51.9,50.5,29.92,SW,232,0.0,0.0,95,0.00,CLR,,0.00,WeatherDisplay:10.37,2013-06-08 10:48:00,
2013-06-08 05:53:00,52.2,50.8,29.92,SW,232,0.0,0.0,95,0.00,CLR,,0.00,WeatherDisplay:10.37,2013-06-08 10:53:00,
2013-06-08 05:58:00,52.4,52.4,29.91,SW,232,0.0,0.0,100,0.00,CLR,,0.00,WeatherDisplay:10.37,2013-06-08 10:58:00,
2013-06-08 06:03:00,52.5,51.1,29.91,East,93,0.0,0.0,95,0.00,CLR,,0.00,WeatherDisplay:10.37,2013-06-08 11:03:00,
2013-06-08 06:08:00,52.6,52.6,29.91,East,94,0.0,0.0,100,0.00,CLR,,0.00,WeatherDisplay:10.37,2013-06-08 11:08:00,
2013-06-08 06:13:00,52.7,52.7,29.91,East,86,0.3,1.1,100,0.00,CLR,,0.00,WeatherDisplay:10.37,2013-06-08 11:13:00,
2013-06-08 06:18:00,52.9,52.9,29.91,East,86,0.7,1.1,100,0.00,CLR,,0.00,WeatherDisplay:10.37,2013-06-08 11:18:00,
2013-06-08 06:24:00,52.9,51.5,29.92,East,86,0.8,1.1,95,0.00,CLR,,0.00,WeatherDisplay:10.37,2013-06-08 11:24:00,
2013-06-08 06:29:00,52.9,51.5,29.91,East,86,0.8,1.1,95,0.00,CLR,,0.00,WeatherDisplay:10.37,2013-06-08 11:29:00,
2013-06-08 06:34:00,52.9,51.5,29.91,East,86,0.0,0.0,95,0.00,CLR,,0.00,WeatherDisplay:10.37,2013-06-08 11:34:00,
2013-06-08 06:39:00,52.9,51.5,29.91,East,86,0.5,1.0,95,0.00,CLR,,0.00,WeatherDisplay:10.37,2013-06-08 11:39:00,
2013-06-08 06:44:00,53.0,51.6,29.91,East,86,0.0,0.0,95,0.00,CLR,,0.00,WeatherDisplay:10.37,2013-06-08 11:44:00,
2013-06-08 06:49:00,53.3,51.9,29.91,East,86,0.0,0.0,95,0.00,CLR,,0.00,WeatherDisplay:10.37,2013-06-08 11:49:00,
2013-06-08 06:54:00,54.2,52.8,29.92,East,86,0.0,0.0,95,0.00,CLR,,0.00,WeatherDisplay:10.37,2013-06-08 11:54:00,
2013-06-08 06:59:00,55.0,53.3,29.91,East,86,0.0,0.0,94,0.00,CLR,,0.00,WeatherDisplay:10.37,2013-06-08 11:59:00,
2013-06-08 07:04:00,55.8,53.8,29.92,East,86,0.0,0.0,93,0.00,CLR,,0.00,WeatherDisplay:10.37,2013-06-08 12:04:00,
2013-06-08 07:09:00,57.0,55.0,29.92,East,86,0.0,0.0,93,0.00,CLR,,0.00,WeatherDisplay:10.37,2013-06-08 12:09:00,
2013-06-08 07:14:00,58.4,55.5,29.92,East,86,0.0,0.0,90,0.00,CLR,,0.00,WeatherDisplay:10.37,2013-06-08 12:14:00,
2013-06-08 07:19:00,59.3,56.4,29.91,East,86,0.0,0.0,90,0.00,CLR,,0.00,WeatherDisplay:10.37,2013-06-08 12:19:00,
2013-06-08 07:24:00,60.6,56.4,29.91,East,86,0.0,0.0,86,0.00,CLR,,0.00,WeatherDisplay:10.37,2013-06-08 12:24:00,
2013-06-08 07:29:00,61.4,57.2,29.91,East,86,0.0,0.0,86,0.00,CLR,,0.00,WeatherDisplay:10.37,2013-06-08 12:29:00,
2013-06-08 07:34:00,62.1,57.9,29.91,East,86,0.0,0.0,86,0.00,CLR,,0.00,WeatherDisplay:10.37,2013-06-08 12:34:00,
2013-06-08 07:39:00,62.7,57.8,29.92,East,86,0.0,0.0,84,0.00,CLR,,0.00,WeatherDisplay:10.37,2013-06-08 12:39:00,
2013-06-08 07:44:00,63.4,57.8,29.92,East,87,0.0,0.0,82,0.00,CLR,,0.00,WeatherDisplay:10.37,2013-06-08 12:44:00,
2013-06-08 07:49:00,64.1,58.1,29.92,East,91,0.0,0.0,81,0.00,CLR,,0.00,WeatherDisplay:10.37,2013-06-08 12:49:00,
2013-06-08 07:54:00,64.8,58.1,29.92,ESE,113,0.0,0.0,79,0.00,CLR,,0.00,WeatherDisplay:10.37,2013-06-08 12:54:00,
2013-06-08 07:59:00,64.9,58.2,29.92,SE,129,0.0,0.0,79,0.00,CLR,,0.00,WeatherDisplay:10.37,2013-06-08 12:59:00,
2013-06-08 08:04:00,65.0,58.7,29.92,SSE,156,0.0,0.0,80,0.00,CLR,,0.00,WeatherDisplay:10.37,2013-06-08 13:04:00,
2013-06-08 08:09:00,65.4,58.7,29.92,ESE,108,0.0,0.0,79,0.00,CLR,,0.00,WeatherDisplay:10.37,2013-06-08 13:09:00,
2013-06-08 08:14:00,65.7,58.3,29.92,East,100,0.0,0.0,77,0.00,CLR,,0.00,WeatherDisplay:10.37,2013-06-08 13:14:00,
2013-06-08 08:19:00,65.9,58.5,29.92,East,92,0.1,1.0,77,0.00,CLR,,0.00,WeatherDisplay:10.37,2013-06-08 13:19:00,
2013-06-08 08:24:00,66.2,59.1,29.92,SE,129,0.0,0.0,78,0.00,CLR,,0.00,WeatherDisplay:10.37,2013-06-08 13:24:00,
2013-06-08 08:29:00,67.0,58.8,29.92,SSW,212,0.0,0.0,75,0.00,CLR,,0.00,WeatherDisplay:10.37,2013-06-08 13:29:00,
2013-06-08 08:34:00,67.3,59.1,29.92,ESE,114,0.2,1.1,75,0.00,CLR,,0.00,WeatherDisplay:10.37,2013-06-08 13:34:00,
2013-06-08 08:39:00,67.5,59.3,29.92,East,89,0.1,1.1,75,0.00,CLR,,0.00,WeatherDisplay:10.37,2013-06-08 13:39:00,
2013-06-08 08:44:00,68.0,59.4,29.92,East,81,0.5,2.3,74,0.00,CLR,,0.00,WeatherDisplay:10.37,2013-06-08 13:44:00,
2013-06-08 08:49:00,68.4,59.0,29.92,WSW,238,0.1,1.0,72,0.00,CLR,,0.00,WeatherDisplay:10.37,2013-06-08 13:49:00,
2013-06-08 08:54:00,68.7,59.3,29.92,SSW,205,0.4,3.5,72,0.00,CLR,,0.00,WeatherDisplay:10.37,2013-06-08 13:54:00,
2013-06-08 08:59:00,68.7,59.7,29.92,SE,128,0.1,1.0,73,0.00,CLR,,0.00,WeatherDisplay:10.37,2013-06-08 13:59:00,
2013-06-08 09:04:00,69.3,60.3,29.92,ESE,122,0.3,1.1,73,0.00,CLR,,0.00,WeatherDisplay:10.37,2013-06-08 14:04:00,
2013-06-08 09:09:00,69.1,59.3,29.92,East,93,0.0,1.1,71,0.00,CLR,,0.00,WeatherDisplay:10.37,2013-06-08 14:09:00,
2013-06-08 09:14:00,69.5,60.1,29.92,ENE,76,0.9,2.0,72,0.00,CLR,,0.00,WeatherDisplay:10.37,2013-06-08 14:14:00,
2013-06-08 09:19:00,69.2,59.4,29.92,SSE,162,0.0,1.1,71,0.00,CLR,,0.00,WeatherDisplay:10.37,2013-06-08 14:19:00,
2013-06-08 09:24:00,69.4,59.2,29.92,WSW,253,2.9,5.0,70,0.00,CLR,,0.00,WeatherDisplay:10.37,2013-06-08 14:24:00,
2013-06-08 09:29:00,69.6,58.2,29.92,SSE,165,0.8,2.0,67,0.00,CLR,,0.00,WeatherDisplay:10.37,2013-06-08 14:29:00,
2013-06-08 09:34:00,70.1,57.8,29.92,South,188,2.0,3.5,65,0.00,CLR,,0.00,WeatherDisplay:10.37,2013-06-08 14:34:00,
2013-06-08 09:39:00,70.3,58.8,29.92,SE,125,2.0,3.5,67,0.00,CLR,,0.00,WeatherDisplay:10.37,2013-06-08 14:39:00,
2013-06-08 09:44:00,70.5,58.6,29.92,WSW,250,3.8,4.6,66,0.00,CLR,,0.00,WeatherDisplay:10.37,2013-06-08 14:44:00,
2013-06-08 09:49:00,70.6,59.5,29.92,SSE,152,0.3,3.0,68,0.00,CLR,,0.00,WeatherDisplay:10.37,2013-06-08 14:49:00,
2013-06-08 09:54:00,70.7,58.4,29.92,SSE,162,2.2,5.0,65,0.00,CLR,,0.00,WeatherDisplay:10.37,2013-06-08 14:54:00,
2013-06-08 09:59:00,71.2,58.8,29.92,SE,138,2.9,3.5,65,0.00,CLR,,0.00,WeatherDisplay:10.37,2013-06-08 14:59:00,
2013-06-08 10:04:00,71.4,58.6,29.92,South,169,2.7,3.5,64,0.00,CLR,,0.00,WeatherDisplay:10.37,2013-06-08 15:04:00,
2013-06-08 10:09:00,71.7,59.7,29.92,NNE,28,0.4,1.1,66,0.00,CLR,,0.00,WeatherDisplay:10.37,2013-06-08 15:09:00,
2013-06-08 10:14:00,72.3,59.4,29.91,SE,128,2.1,3.5,64,0.00,CLR,,0.00,WeatherDisplay:10.37,2013-06-08 15:14:00,
2013-06-08 10:19:00,71.9,58.6,29.91,East,85,3.4,4.0,63,0.00,CLR,,0.00,WeatherDisplay:10.37,2013-06-08 15:19:00,
2013-06-08 10:24:00,71.6,58.3,29.91,SSW,212,4.9,5.0,63,0.00,CLR,,0.00,WeatherDisplay:10.37,2013-06-08 15:24:00,
2013-06-08 10:29:00,71.7,58.9,29.91,SSE,162,3.3,5.0,64,0.00,CLR,,0.00,WeatherDisplay:10.37,2013-06-08 15:29:00,
2013-06-08 10:34:00,71.7,58.9,29.91,West,270,0.1,2.3,64,0.00,CLR,,0.00,WeatherDisplay:10.37,2013-06-08 15:34:00,
2013-06-08 10:39:00,73.1,59.3,29.91,SSW,213,0.1,2.3,62,0.00,CLR,,0.00,WeatherDisplay:10.37,2013-06-08 15:39:00,
2013-06-08 10:44:00,72.7,58.5,29.91,ESE,102,0.7,3.5,61,0.00,CLR,,0.00,WeatherDisplay:10.37,2013-06-08 15:44:00,
2013-06-08 10:49:00,73.7,60.3,29.91,ENE,77,1.3,3.0,63,0.00,CLR,,0.00,WeatherDisplay:10.37,2013-06-08 15:49:00,
2013-06-08 10:54:00,73.7,59.4,29.91,SW,219,1.1,3.5,61,0.00,CLR,,0.00,WeatherDisplay:10.37,2013-06-08 15:54:00,
2013-06-08 10:59:00,74.4,60.1,29.91,NW,310,0.1,1.1,61,0.00,CLR,,0.00,WeatherDisplay:10.37,2013-06-08 15:59:00,
2013-06-08 11:04:00,75.0,57.7,29.91,South,176,2.3,5.8,55,0.00,CLR,,0.00,WeatherDisplay:10.37,2013-06-08 16:04:00,
2013-06-08 11:09:00,74.7,59.9,29.91,ENE,65,0.9,4.0,60,0.00,CLR,,0.00,WeatherDisplay:10.37,2013-06-08 16:09:00,
2013-06-08 11:14:00,75.0,59.2,29.91,SW,229,1.5,2.0,58,0.00,CLR,,0.00,WeatherDisplay:10.37,2013-06-08 16:14:00,
2013-06-08 11:19:00,75.3,59.5,29.91,West,266,1.8,1.8,58,0.00,CLR,,0.00,WeatherDisplay:10.37,2013-06-08 16:19:00,
2013-06-08 11:24:00,74.5,57.3,29.91,WSW,242,2.3,4.6,55,0.00,CLR,,0.00,WeatherDisplay:10.37,2013-06-08 16:24:00,
2013-06-08 11:29:00,74.9,58.6,29.91,SW,229,0.7,2.3,57,0.00,CLR,,0.00,WeatherDisplay:10.37,2013-06-08 16:29:00,
2013-06-08 11:34:00,75.1,58.8,29.91,SE,146,0.0,1.1,57,0.00,CLR,,0.00,WeatherDisplay:10.37,2013-06-08 16:34:00,
2013-06-08 11:39:00,75.2,60.8,29.91,SSW,207,2.0,4.0,61,0.00,CLR,,0.00,WeatherDisplay:10.37,2013-06-08 16:39:00,
2013-06-08 11:44:00,75.3,58.0,29.91,SW,223,0.7,5.8,55,0.00,CLR,,0.00,WeatherDisplay:10.37,2013-06-08 16:44:00,
2013-06-08 11:49:00,75.3,59.0,29.91,SSW,194,0.5,3.5,57,0.00,CLR,,0.00,WeatherDisplay:10.37,2013-06-08 16:49:00,
2013-06-08 11:54:00,75.0,58.2,29.91,South,187,3.0,4.6,56,0.00,CLR,,0.00,WeatherDisplay:10.37,2013-06-08 16:54:00,
2013-06-08 11:59:00,75.3,58.5,29.91,West,263,2.0,4.6,56,0.00,CLR,,0.00,WeatherDisplay:10.37,2013-06-08 16:59:00,
2013-06-08 12:04:00,74.8,59.0,29.91,WNW,300,5.9,11.5,58,0.00,CLR,,0.00,WeatherDisplay:10.37,2013-06-08 17:04:00,
2013-06-08 12:10:00,74.6,58.4,29.91,WSW,243,2.0,4.0,57,0.00,CLR,,0.00,WeatherDisplay:10.37,2013-06-08 17:10:00,
2013-06-08 12:15:00,74.0,56.8,29.90,WSW,238,1.0,3.5,55,0.00,CLR,,0.00,WeatherDisplay:10.37,2013-06-08 17:15:00,
2013-06-08 12:20:00,73.8,58.1,29.90,SW,234,2.9,3.5,58,0.00,CLR,,0.00,WeatherDisplay:10.37,2013-06-08 17:20:00,
2013-06-08 12:25:00,74.1,57.4,29.90,SSW,203,1.7,3.5,56,0.00,CLR,,0.00,WeatherDisplay:10.37,2013-06-08 17:25:00,
2013-06-08 12:30:00,74.8,58.1,29.90,SW,236,0.6,5.8,56,0.00,CLR,,0.00,WeatherDisplay:10.37,2013-06-08 17:30:00,
2013-06-08 12:35:00,75.4,58.1,29.90,West,271,4.0,6.9,55,0.00,CLR,,0.00,WeatherDisplay:10.37,2013-06-08 17:35:00,
2013-06-08 12:40:00,75.9,57.5,29.90,SSE,148,1.2,3.5,53,0.00,CLR,,0.00,WeatherDisplay:10.37,2013-06-08 17:40:00,
2013-06-08 12:45:00,77.5,59.5,29.90,SSW,207,0.7,2.3,54,0.00,CLR,,0.00,WeatherDisplay:10.37,2013-06-08 17:45:00,
2013-06-08 12:50:00,78.5,58.9,29.89,SSW,206,3.4,3.5,51,0.00,CLR,,0.00,WeatherDisplay:10.37,2013-06-08 17:50:00,
2013-06-08 12:55:00,78.2,58.6,29.89,SSE,148,1.7,3.5,51,0.00,CLR,,0.00,WeatherDisplay:10.37,2013-06-08 17:55:00,
2013-06-08 13:00:00,78.4,59.3,29.89,WNW,293,0.0,0.0,52,0.00,CLR,,0.00,WeatherDisplay:10.37,2013-06-08 18:00:00,
2013-06-08 13:05:00,79.9,59.6,29.89,South,184,2.6,3.5,50,0.00,CLR,,0.00,WeatherDisplay:10.37,2013-06-08 18:05:00,
2013-06-08 13:10:00,79.2,57.2,29.89,SW,218,3.8,6.9,47,0.00,CLR,,0.00,WeatherDisplay:10.37,2013-06-08 18:10:00,
2013-06-08 13:15:00,78.4,56.5,29.89,SW,215,0.3,1.1,47,0.00,CLR,,0.00,WeatherDisplay:10.37,2013-06-08 18:15:00,
2013-06-08 13:20:00,79.4,57.4,29.89,WSW,238,0.2,1.1,47,0.00,CLR,,0.00,WeatherDisplay:10.37,2013-06-08 18:20:00,
2013-06-08 13:25:00,79.5,58.7,29.88,South,172,0.9,3.5,49,0.00,CLR,,0.00,WeatherDisplay:10.37,2013-06-08 18:25:00,
2013-06-08 13:30:00,78.9,56.4,29.88,SSW,205,3.8,6.9,46,0.00,CLR,,0.00,WeatherDisplay:10.37,2013-06-08 18:30:00,
2013-06-08 13:35:00,79.3,57.9,29.88,SW,218,2.6,7.0,48,0.00,CLR,,0.00,WeatherDisplay:10.37,2013-06-08 18:35:00,
2013-06-08 13:40:00,78.4,57.1,29.88,SW,221,0.8,3.5,48,0.00,CLR,,0.00,WeatherDisplay:10.37,2013-06-08 18:40:00,
2013-06-08 13:45:00,78.6,58.4,29.87,South,180,2.3,3.5,50,0.00,CLR,,0.00,WeatherDisplay:10.37,2013-06-08 18:45:00,
2013-06-08 13:50:00,78.6,57.8,29.87,SSE,165,1.0,2.3,49,0.00,CLR,,0.00,WeatherDisplay:10.37,2013-06-08 18:50:00,
2013-06-08 13:55:00,79.4,56.8,29.87,SW,219,1.1,3.5,46,0.00,CLR,,0.00,WeatherDisplay:10.37,2013-06-08 18:55:00,
2013-06-08 14:00:00,79.8,57.8,29.87,WNW,299,4.8,9.2,47,0.00,CLR,,0.00,WeatherDisplay:10.37,2013-06-08 19:00:00,
2013-06-08 14:05:00,80.1,59.8,29.87,SSE,157,2.5,4.0,50,0.00,CLR,,0.00,WeatherDisplay:10.37,2013-06-08 19:05:00,
2013-06-08 14:10:00,80.2,57.5,29.87,SSE,150,3.4,4.6,46,0.00,,,0.00,WeatherDisplay:10.37,2013-06-08 19:10:00,
2013-06-08 14:15:00,80.4,58.3,29.87,NE,40,2.3,5.8,47,0.00,,,0.00,WeatherDisplay:10.37,2013-06-08 19:15:00,
2013-06-08 14:20:00,79.9,59.0,29.86,South,173,1.0,3.5,49,0.00,,,0.00,WeatherDisplay:10.37,2013-06-08 19:20:00,
2013-06-08 14:25:00,80.2,58.7,29.86,ESE,108,1.7,8.1,48,0.00,,,0.00,WeatherDisplay:10.37,2013-06-08 19:25:00,
2013-06-08 14:30:00,80.4,60.1,29.86,SSW,194,0.2,2.3,50,0.00,,,0.00,WeatherDisplay:10.37,2013-06-08 19:30:00,
2013-06-08 14:35:00,80.3,58.2,29.86,WSW,252,3.7,4.6,47,0.00,,,0.00,WeatherDisplay:10.37,2013-06-08 19:35:00,
2013-06-08 14:40:00,79.9,57.9,29.86,SSW,195,2.6,4.6,47,0.00,,,0.00,WeatherDisplay:10.37,2013-06-08 19:40:00,
2013-06-08 14:45:00,79.8,57.8,29.86,SW,231,2.6,5.8,47,0.00,,,0.00,WeatherDisplay:10.37,2013-06-08 19:45:00,
2013-06-08 14:50:00,80.9,58.8,29.86,SSW,197,2.4,6.9,47,0.00,,,0.00,WeatherDisplay:10.37,2013-06-08 19:50:00,
2013-06-08 14:55:00,80.9,57.6,29.85,ESE,123,2.1,4.6,45,0.00,,,0.00,WeatherDisplay:10.37,2013-06-08 19:55:00,
2013-06-08 15:00:00,80.6,59.1,29.85,SW,236,5.0,6.0,48,0.00,,,0.00,WeatherDisplay:10.37,2013-06-08 20:00:00,
2013-06-08 15:05:00,79.2,56.0,29.85,SSE,162,4.7,11.5,45,0.00,,,0.00,WeatherDisplay:10.37,2013-06-08 20:05:00,
2013-06-08 15:10:00,80.0,59.1,29.85,East,100,2.2,3.5,49,0.00,,,0.00,WeatherDisplay:10.37,2013-06-08 20:10:00,
2013-06-08 15:15:00,80.1,54.3,29.85,West,260,0.4,3.5,41,0.00,,,0.00,WeatherDisplay:10.37,2013-06-08 20:15:00,
2013-06-08 15:20:00,80.8,57.5,29.85,WSW,239,4.8,6.9,45,0.00,,,0.00,WeatherDisplay:10.37,2013-06-08 20:20:00,
2013-06-08 15:25:00,80.6,56.7,29.85,SW,236,2.9,5.8,44,0.00,,,0.00,WeatherDisplay:10.37,2013-06-08 20:25:00,
2013-06-08 15:30:00,80.8,54.9,29.84,SE,132,2.7,4.6,41,0.00,,,0.00,WeatherDisplay:10.37,2013-06-08 20:30:00,
2013-06-08 15:35:00,80.2,55.7,29.84,SW,236,4.4,5.8,43,0.00,,,0.00,WeatherDisplay:10.37,2013-06-08 20:35:00,
2013-06-08 15:40:00,80.1,56.8,29.84,SE,136,1.2,2.3,45,0.00,,,0.00,WeatherDisplay:10.37,2013-06-08 20:40:00,
2013-06-08 15:45:00,80.9,56.3,29.84,WSW,257,1.4,3.5,43,0.00,,,0.00,WeatherDisplay:10.37,2013-06-08 20:45:00,
2013-06-08 15:50:00,81.2,54.6,29.84,SW,224,4.7,5.8,40,0.00,,,0.00,WeatherDisplay:10.37,2013-06-08 20:50:00,
2013-06-08 15:55:00,81.1,55.8,29.84,West,266,0.9,2.3,42,0.00,,,0.00,WeatherDisplay:10.37,2013-06-08 20:55:00,
2013-06-08 16:00:00,80.7,55.5,29.84,SSW,198,3.5,5.0,42,0.00,,,0.00,WeatherDisplay:10.37,2013-06-08 21:00:00,
2013-06-08 16:05:00,81.0,57.0,29.84,SW,229,0.9,2.3,44,0.00,,,0.00,WeatherDisplay:10.37,2013-06-08 21:05:00,
2013-06-08 16:10:00,81.2,57.2,29.84,WSW,245,1.7,3.5,44,0.00,,,0.00,WeatherDisplay:10.37,2013-06-08 21:10:00,
2013-06-08 16:15:00,81.2,57.2,29.84,WSW,257,3.6,8.1,44,0.00,,,0.00,WeatherDisplay:10.37,2013-06-08 21:15:00,
2013-06-08 16:20:00,81.0,58.9,29.84,SW,219,1.4,2.3,47,0.00,,,0.00,WeatherDisplay:10.37,2013-06-08 21:20:00,
2013-06-08 16:25:00,80.8,56.9,29.84,WSW,257,2.3,3.5,44,0.00,,,0.00,WeatherDisplay:10.37,2013-06-08 21:25:00,
2013-06-08 16:30:00,79.8,56.6,29.84,South,187,2.8,5.8,45,0.00,,,0.00,WeatherDisplay:10.37,2013-06-08 21:30:00,
2013-06-08 16:35:00,79.4,56.2,29.84,SSW,207,6.6,10.4,45,0.00,,,0.00,WeatherDisplay:10.37,2013-06-08 21:35:00,
2013-06-08 16:40:00,79.0,55.8,29.84,SW,224,2.8,5.8,45,0.00,,,0.00,WeatherDisplay:10.37,2013-06-08 21:40:00,
2013-06-08 16:45:00,79.5,56.9,29.84,WSW,252,0.2,1.1,46,0.00,,,0.00,WeatherDisplay:10.37,2013-06-08 21:45:00,
2013-06-08 16:50:00,80.8,59.3,29.84,SSW,208,0.0,0.0,48,0.00,,,0.00,WeatherDisplay:10.37,2013-06-08 21:50:00,
2013-06-08 16:55:00,80.5,56.6,29.84,SE,128,3.2,9.2,44,0.00,,,0.00,WeatherDisplay:10.37,2013-06-08 21:55:00,
2013-06-08 17:00:00,80.4,55.2,29.84,SW,219,3.3,3.5,42,0.00,,,0.00,WeatherDisplay:10.37,2013-06-08 22:00:00,
2013-06-08 17:05:00,80.2,55.7,29.83,SW,224,4.4,4.6,43,0.00,,,0.00,WeatherDisplay:10.37,2013-06-08 22:05:00,
2013-06-08 17:10:00,80.3,56.4,29.83,SW,236,0.5,3.5,44,0.00,CLR,,0.00,WeatherDisplay:10.37,2013-06-08 22:10:00,
2013-06-08 17:15:00,80.7,58.6,29.83,SSW,201,1.1,3.5,47,0.00,CLR,,0.00,WeatherDisplay:10.37,2013-06-08 22:15:00,
2013-06-08 17:20:00,80.6,56.7,29.83,SE,128,0.5,1.1,44,0.00,CLR,,0.00,WeatherDisplay:10.37,2013-06-08 22:20:00,
2013-06-08 17:25:00,80.7,56.8,29.83,SSE,162,0.0,2.3,44,0.00,CLR,,0.00,WeatherDisplay:10.37,2013-06-08 22:25:00,
2013-06-08 17:30:00,81.6,57.6,29.83,South,187,0.1,1.1,44,0.00,CLR,,0.00,WeatherDisplay:10.37,2013-06-08 22:30:00,
2013-06-08 17:35:00,81.8,59.0,29.83,South,186,1.4,0.0,46,0.00,CLR,,0.00,WeatherDisplay:10.37,2013-06-08 22:35:00,
2013-06-08 17:40:00,81.6,60.0,29.83,South,187,1.4,2.3,48,0.00,CLR,,0.00,WeatherDisplay:10.37,2013-06-08 22:40:00,
2013-06-08 17:45:00,80.8,58.1,29.83,SSE,163,1.8,3.5,46,0.00,CLR,,0.00,WeatherDisplay:10.37,2013-06-08 22:45:00,
2013-06-08 17:50:00,80.2,58.1,29.82,SSE,155,1.8,3.5,47,0.00,CLR,,0.00,WeatherDisplay:10.37,2013-06-08 22:50:00,
2013-06-08 17:56:00,79.9,59.0,29.83,SSE,167,0.0,1.1,49,0.00,CLR,,0.00,WeatherDisplay:10.37,2013-06-08 22:56:00,
2013-06-08 18:01:00,80.0,58.5,29.83,SW,221,1.7,3.5,48,0.00,CLR,,0.00,WeatherDisplay:10.37,2013-06-08 23:01:00,
2013-06-08 18:06:00,80.1,60.9,29.83,SW,218,0.1,2.3,52,0.00,CLR,,0.00,WeatherDisplay:10.37,2013-06-08 23:06:00,
2013-06-08 18:11:00,80.1,59.8,29.82,SSE,155,0.2,1.1,50,0.00,CLR,,0.00,WeatherDisplay:10.37,2013-06-08 23:11:00,
2013-06-08 18:16:00,79.5,59.8,29.82,SSE,160,0.4,2.3,51,0.00,CLR,,0.00,WeatherDisplay:10.37,2013-06-08 23:16:00,
2013-06-08 18:21:00,79.1,60.0,29.82,SE,143,0.8,3.5,52,0.00,CLR,,0.00,WeatherDisplay:10.37,2013-06-08 23:21:00,
2013-06-08 18:26:00,78.6,60.6,29.82,SE,145,0.3,1.1,54,0.00,CLR,,0.00,WeatherDisplay:10.37,2013-06-08 23:26:00,
2013-06-08 18:31:00,78.7,62.2,29.82,East,82,0.1,1.1,57,0.00,CLR,,0.00,WeatherDisplay:10.37,2013-06-08 23:31:00,
2013-06-08 18:36:00,79.0,63.0,29.82,East,82,0.0,0.0,58,0.00,CLR,,0.00,WeatherDisplay:10.37,2013-06-08 23:36:00,
2013-06-08 18:41:00,79.9,62.3,29.82,South,173,0.0,0.0,55,0.00,CLR,,0.00,WeatherDisplay:10.37,2013-06-08 23:41:00,
2013-06-08 18:46:00,80.2,62.0,29.82,SSE,149,0.0,0.0,54,0.00,CLR,,0.00,WeatherDisplay:10.37,2013-06-08 23:46:00,
2013-06-08 18:51:00,80.7,62.0,29.82,SE,138,1.6,3.5,53,0.00,CLR,,0.00,WeatherDisplay:10.37,2013-06-08 23:51:00,
2013-06-08 18:56:00,80.0,61.3,29.83,ESE,107,2.1,4.6,53,0.00,CLR,,0.00,WeatherDisplay:10.37,2013-06-08 23:56:00,
2013-06-08 19:01:00,79.7,61.6,29.83,East,91,0.8,2.3,54,0.00,CLR,,0.00,WeatherDisplay:10.37,2013-06-09 00:01:00,
2013-06-08 19:06:00,78.9,60.8,29.82,ENE,75,1.9,5.8,54,0.00,CLR,,0.00,WeatherDisplay:10.37,2013-06-09 00:06:00,
2013-06-08 19:11:00,78.3,60.8,29.83,West,274,0.8,3.5,55,0.00,CLR,,0.00,WeatherDisplay:10.37,2013-06-09 00:11:00,
2013-06-08 19:16:00,77.5,60.1,29.82,SE,139,0.7,2.3,55,0.00,CLR,,0.00,WeatherDisplay:10.37,2013-06-09 00:16:00,
2013-06-08 19:21:00,77.1,60.2,29.82,SSW,205,0.4,2.3,56,0.00,CLR,,0.00,WeatherDisplay:10.37,2013-06-09 00:21:00,
2013-06-08 19:26:00,76.6,60.2,29.82,SSE,152,0.0,0.0,57,0.00,CLR,,0.00,WeatherDisplay:10.37,2013-06-09 00:26:00,
2013-06-08 19:31:00,76.0,61.1,29.82,SE,129,0.0,0.0,60,0.00,CLR,,0.00,WeatherDisplay:10.37,2013-06-09 00:31:00,
2013-06-08 19:36:00,75.7,60.4,29.82,SSE,163,0.0,1.1,59,0.00,CLR,,0.00,WeatherDisplay:10.37,2013-06-09 00:36:00,
2013-06-08 19:41:00,75.3,61.4,29.81,SSE,155,0.0,0.0,62,0.00,CLR,,0.00,WeatherDisplay:10.37,2013-06-09 00:41:00,
2013-06-08 19:47:00,74.6,60.3,29.81,SE,141,0.1,1.1,61,0.00,CLR,,0.00,WeatherDisplay:10.37,2013-06-09 00:47:00,
2013-06-08 19:52:00,74.3,60.4,29.81,SE,133,0.0,0.0,62,0.00,CLR,,0.00,WeatherDisplay:10.37,2013-06-09 00:52:00,
2013-06-08 19:57:00,74.0,60.6,29.81,SE,133,0.0,0.0,63,0.00,CLR,,0.00,WeatherDisplay:10.37,2013-06-09 00:57:00,
2013-06-08 20:02:00,73.7,60.3,29.81,SW,225,0.0,1.0,63,0.00,CLR,,0.00,WeatherDisplay:10.37,2013-06-09 01:02:00,
2013-06-08 20:07:00,73.5,59.7,29.81,SSE,154,0.0,0.0,62,0.00,CLR,,0.00,WeatherDisplay:10.37,2013-06-09 01:07:00,
2013-06-08 20:12:00,73.2,60.3,29.82,SSE,154,0.0,0.0,64,0.00,CLR,,0.00,WeatherDisplay:10.37,2013-06-09 01:12:00,
2013-06-08 20:17:00,72.6,60.2,29.82,SSE,162,0.0,0.0,65,0.00,CLR,,0.00,WeatherDisplay:10.37,2013-06-09 01:17:00,
2013-06-08 20:22:00,72.2,59.3,29.81,SSE,163,0.4,2.3,64,0.00,CLR,,0.00,WeatherDisplay:10.37,2013-06-09 01:22:00,
2013-06-08 20:27:00,71.9,59.1,29.82,SW,221,1.2,3.5,64,0.00,CLR,,0.00,WeatherDisplay:10.37,2013-06-09 01:27:00,
2013-06-08 20:32:00,71.8,58.5,29.83,SSE,149,0.2,1.1,63,0.00,CLR,,0.00,WeatherDisplay:10.37,2013-06-09 01:32:00,
2013-06-08 20:37:00,71.5,58.7,29.82,SSW,197,0.2,1.1,64,0.00,CLR,,0.00,WeatherDisplay:10.37,2013-06-09 01:37:00,
2013-06-08 20:42:00,71.1,58.7,29.82,South,170,0.7,2.3,65,0.00,CLR,,0.00,WeatherDisplay:10.37,2013-06-09 01:42:00,
2013-06-08 20:47:00,70.9,58.5,29.83,SSE,148,0.0,0.0,65,0.00,CLR,,0.00,WeatherDisplay:10.37,2013-06-09 01:47:00,
2013-06-08 20:52:00,70.5,59.0,29.83,SSE,148,0.0,0.0,67,0.00,CLR,,0.00,WeatherDisplay:10.37,2013-06-09 01:52:00,
2013-06-08 20:57:00,70.0,59.0,29.83,SE,146,0.0,0.0,68,0.00,CLR,,0.00,WeatherDisplay:10.37,2013-06-09 01:57:00,
2013-06-08 21:02:00,69.8,58.8,29.83,SSE,148,0.0,0.0,68,0.00,,,0.00,WeatherDisplay:10.37,2013-06-09 02:02:00,
2013-06-08 21:07:00,69.7,59.1,29.83,SSE,148,0.0,0.0,69,0.00,,,0.00,WeatherDisplay:10.37,2013-06-09 02:07:00,
2013-06-08 21:12:00,69.6,59.0,29.83,South,169,0.0,0.0,69,0.00,,,0.00,WeatherDisplay:10.37,2013-06-09 02:12:00,
2013-06-08 21:17:00,69.7,58.7,29.84,SSW,207,0.1,1.1,68,0.00,,,0.00,WeatherDisplay:10.37,2013-06-09 02:17:00,
2013-06-08 21:22:00,69.9,58.9,29.84,SSW,205,1.0,3.0,68,0.00,,,0.00,WeatherDisplay:10.37,2013-06-09 02:22:00,
2013-06-08 21:27:00,70.2,58.7,29.85,SW,217,0.8,2.3,67,0.00,,,0.00,WeatherDisplay:10.37,2013-06-09 02:27:00,
2013-06-08 21:32:00,70.5,59.0,29.85,SE,140,0.2,1.1,67,0.00,,,0.00,WeatherDisplay:10.37,2013-06-09 02:32:00,
2013-06-08 21:37:00,70.4,58.9,29.85,SSE,163,0.0,0.0,67,0.00,,,0.00,WeatherDisplay:10.37,2013-06-09 02:37:00,
2013-06-08 21:42:00,70.5,59.0,29.85,SSE,167,0.0,2.3,67,0.00,,,0.00,WeatherDisplay:10.37,2013-06-09 02:42:00,
2013-06-08 21:47:00,70.6,59.1,29.86,SW,221,0.8,1.1,67,0.00,,,0.00,WeatherDisplay:10.37,2013-06-09 02:47:00,
2013-06-08 21:52:00,70.7,59.2,29.86,SW,215,1.1,2.3,67,0.00,,,0.00,WeatherDisplay:10.37,2013-06-09 02:52:00,
2013-06-08 21:57:00,70.7,59.2,29.87,SSE,163,0.4,1.1,67,0.00,,,0.00,WeatherDisplay:10.37,2013-06-09 02:57:00,
2013-06-08 22:02:00,70.6,59.1,29.87,SE,143,1.1,2.3,67,0.00,,,0.00,WeatherDisplay:10.37,2013-06-09 03:02:00,
2013-06-08 22:07:00,70.6,58.7,29.87,South,187,0.6,2.3,66,0.00,,,0.00,WeatherDisplay:10.37,2013-06-09 03:07:00,
2013-06-08 22:12:00,70.6,58.7,29.87,SSE,161,0.6,2.3,66,0.00,,,0.00,WeatherDisplay:10.37,2013-06-09 03:12:00,
2013-06-08 22:17:00,70.5,58.6,29.87,SSE,155,0.4,2.3,66,0.00,,,0.00,WeatherDisplay:10.37,2013-06-09 03:17:00,
2013-06-08 22:22:00,70.3,58.8,29.87,SSE,147,0.0,0.0,67,0.00,,,0.00,WeatherDisplay:10.37,2013-06-09 03:22:00,
2013-06-08 22:27:00,69.9,58.9,29.87,South,172,0.0,0.0,68,0.00,,,0.00,WeatherDisplay:10.37,2013-06-09 03:27:00,
2013-06-08 22:32:00,69.5,58.5,29.87,South,172,0.0,0.0,68,0.00,,,0.00,WeatherDisplay:10.37,2013-06-09 03:32:00,
2013-06-08 22:37:00,69.0,58.4,29.86,South,172,0.0,0.0,69,0.00,,,0.00,WeatherDisplay:10.37,2013-06-09 03:37:00,
2013-06-08 22:42:00,68.5,58.7,29.86,WSW,245,0.1,0.0,71,0.00,,,0.00,WeatherDisplay:10.37,2013-06-09 03:42:00,
2013-06-08 22:47:00,68.1,58.7,29.87,WSW,245,0.0,0.0,72,0.00,,,0.00,WeatherDisplay:10.37,2013-06-09 03:47:00,
2013-06-08 22:52:00,67.7,58.3,29.87,SW,218,0.1,1.1,72,0.00,,,0.00,WeatherDisplay:10.37,2013-06-09 03:52:00,
2013-06-08 22:57:00,67.5,58.5,29.87,South,184,0.4,0.0,73,0.00,,,0.00,WeatherDisplay:10.37,2013-06-09 03:57:00,
2013-06-08 23:01:00,67.5,58.5,29.87,SSE,159,0.0,2.3,73,0.00,,,0.00,WeatherDisplay:10.37,2013-06-09 04:01:00,
2013-06-08 23:02:00,67.5,58.5,29.87,SSE,159,0.0,0.0,73,0.00,,,0.00,WeatherDisplay:10.37,2013-06-09 04:02:00,
2013-06-08 23:07:00,67.3,58.7,29.87,SSE,149,0.0,0.0,74,0.00,,,0.00,WeatherDisplay:10.37,2013-06-09 04:07:00,
2013-06-08 23:12:00,66.9,58.7,29.86,SW,235,0.1,1.1,75,0.00,,,0.00,WeatherDisplay:10.37,2013-06-09 04:12:00,
2013-06-08 23:17:00,66.7,58.5,29.86,SSE,167,0.0,1.1,75,0.00,,,0.00,WeatherDisplay:10.37,2013-06-09 04:17:00,
2013-06-08 23:22:00,66.7,58.9,29.86,SE,141,0.0,0.0,76,0.00,,,0.00,WeatherDisplay:10.37,2013-06-09 04:22:00,
2013-06-08 23:27:00,66.5,58.7,29.86,SE,124,0.0,0.0,76,0.00,,,0.00,WeatherDisplay:10.37,2013-06-09 04:27:00,
2013-06-08 23:32:00,66.4,59.0,29.85,SE,139,0.1,0.0,77,0.00,,,0.00,WeatherDisplay:10.37,2013-06-09 04:32:00,
2013-06-08 23:37:00,66.5,59.1,29.85,SE,143,0.3,1.1,77,0.00,,,0.00,WeatherDisplay:10.37,2013-06-09 04:37:00,
2013-06-08 23:42:00,66.5,59.1,29.86,SSE,167,0.2,2.3,77,0.00,,,0.00,WeatherDisplay:10.37,2013-06-09 04:42:00,
2013-06-08 23:47:00,66.5,59.1,29.86,ENE,77,0.7,2.3,77,0.00,,,0.00,WeatherDisplay:10.37,2013-06-09 04:47:00,
2013-06-08 23:52:00,66.6,59.2,29.86,SW,219,0.2,1.1,77,0.00,,,0.00,WeatherDisplay:10.37,2013-06-09 04:52:00,
2013-06-08 23:57:00,66.5,59.1,29.86,SSE,163,0.3,2.3,77,0.00,,,0.00,WeatherDisplay:10.37,2013-06-09 04:57:00,